sensor_id;sensor_type;location;lat;lon;timestamp;P1;durP1;ratioP1;P2;durP2;ratioP2
15297;SDS011;7750;48.796;9.026;2024-03-17T08:48:49;17.57;;;7.50;;
15297;SDS011;7750;48.796;9.026;2024-03-17T08:53:50;8.50;;;7.00;;
15297;SDS011;7750;48.796;9.026;2024-03-17T09:04:03;9.13;;;6.60;;
15297;SDS011;7750;48.796;9.026;2024-03-17T09:09:10;8.37;;;6.43;;
15297;SDS011;7750;48.796;9.026;2024-03-17T09:14:14;8.70;;;6.97;;
15297;SDS011;7750;48.796;9.026;2024-03-17T09:24:24;9.77;;;6.67;;
15297;SDS011;7750;48.796;9.026;2024-03-17T09:29:26;9.87;;;7.20;;
15297;SDS011;7750;48.796;9.026;2024-03-17T09:34:27;12.90;;;6.93;;
15297;SDS011;7750;48.796;9.026;2024-03-17T09:39:28;10.27;;;6.87;;
15297;SDS011;7750;48.796;9.026;2024-03-17T09:49:38;11.40;;;8.20;;
15297;SDS011;7750;48.796;9.026;2024-03-17T09:54:39;7.30;;;6.47;;
15297;SDS011;7750;48.796;9.026;2024-03-17T09:59:42;8.23;;;6.90;;
15297;SDS011;7750;48.796;9.026;2024-03-17T10:04:42;9.90;;;8.10;;
15297;SDS011;7750;48.796;9.026;2024-03-17T10:09:43;8.77;;;7.17;;
15297;SDS011;7750;48.796;9.026;2024-03-17T10:14:57;9.23;;;7.43;;
15297;SDS011;7750;48.796;9.026;2024-03-17T10:25:23;7.47;;;6.40;;
15297;SDS011;7750;48.796;9.026;2024-03-17T10:30:25;8.00;;;6.87;;
15297;SDS011;7750;48.796;9.026;2024-03-17T10:35:40;9.17;;;7.13;;
15297;SDS011;7750;48.796;9.026;2024-03-17T10:40:42;7.87;;;6.17;;
15297;SDS011;7750;48.796;9.026;2024-03-17T10:45:44;8.50;;;6.37;;
15297;SDS011;7750;48.796;9.026;2024-03-17T10:50:45;9.97;;;6.40;;
15297;SDS011;7750;48.796;9.026;2024-03-17T11:16:30;7.60;;;6.00;;
15297;SDS011;7750;48.796;9.026;2024-03-17T11:21:30;9.03;;;6.70;;
15297;SDS011;7750;48.796;9.026;2024-03-17T11:26:34;7.20;;;5.27;;
15297;SDS011;7750;48.796;9.026;2024-03-17T11:31:41;6.37;;;4.97;;
15297;SDS011;7750;48.796;9.026;2024-03-17T11:36:43;5.70;;;4.70;;
15297;SDS011;7750;48.796;9.026;2024-03-17T11:41:44;8.13;;;4.80;;
15297;SDS011;7750;48.796;9.026;2024-03-17T11:47:02;7.00;;;5.30;;
15297;SDS011;7750;48.796;9.026;2024-03-17T11:52:10;5.60;;;4.73;;
15297;SDS011;7750;48.796;9.026;2024-03-17T11:57:22;5.80;;;4.60;;
15297;SDS011;7750;48.796;9.026;2024-03-17T12:02:27;8.50;;;4.83;;
15297;SDS011;7750;48.796;9.026;2024-03-17T12:07:31;6.67;;;4.10;;
15297;SDS011;7750;48.796;9.026;2024-03-17T12:12:33;5.43;;;4.27;;
15297;SDS011;7750;48.796;9.026;2024-03-17T12:17:41;5.90;;;4.07;;
15297;SDS011;7750;48.796;9.026;2024-03-17T12:22:49;5.20;;;3.37;;
15297;SDS011;7750;48.796;9.026;2024-03-17T12:27:52;8.00;;;3.30;;
15297;SDS011;7750;48.796;9.026;2024-03-17T12:32:55;5.80;;;3.37;;
15297;SDS011;7750;48.796;9.026;2024-03-17T12:37:56;4.00;;;2.40;;
15297;SDS011;7750;48.796;9.026;2024-03-17T12:43:06;3.83;;;1.90;;
15297;SDS011;7750;48.796;9.026;2024-03-17T12:48:12;3.97;;;1.47;;
15297;SDS011;7750;48.796;9.026;2024-03-17T12:53:16;3.23;;;1.93;;
15297;SDS011;7750;48.796;9.026;2024-03-17T12:58:22;3.53;;;2.03;;
15297;SDS011;7750;48.796;9.026;2024-03-17T13:03:41;3.57;;;2.10;;
15297;SDS011;7750;48.796;9.026;2024-03-17T13:08:44;2.37;;;1.50;;
15297;SDS011;7750;48.796;9.026;2024-03-17T13:13:44;5.77;;;1.83;;
15297;SDS011;7750;48.796;9.026;2024-03-17T13:18:45;3.77;;;1.83;;
15297;SDS011;7750;48.796;9.026;2024-03-17T13:23:46;3.67;;;1.67;;
15297;SDS011;7750;48.796;9.026;2024-03-17T13:28:46;2.93;;;1.60;;
15297;SDS011;7750;48.796;9.026;2024-03-17T13:33:47;4.17;;;1.83;;
15297;SDS011;7750;48.796;9.026;2024-03-17T13:38:47;3.00;;;1.40;;
15297;SDS011;7750;48.796;9.026;2024-03-17T13:43:53;3.10;;;1.87;;
15297;SDS011;7750;48.796;9.026;2024-03-17T13:48:57;2.97;;;1.77;;
15297;SDS011;7750;48.796;9.026;2024-03-17T13:54:06;3.67;;;1.90;;
15297;SDS011;7750;48.796;9.026;2024-03-17T13:59:07;3.70;;;1.63;;
15297;SDS011;7750;48.796;9.026;2024-03-17T14:04:11;6.00;;;1.90;;
15297;SDS011;7750;48.796;9.026;2024-03-17T14:09:22;3.03;;;1.87;;
15297;SDS011;7750;48.796;9.026;2024-03-17T14:14:22;4.57;;;3.13;;
15297;SDS011;7750;48.796;9.026;2024-03-17T14:19:23;4.87;;;3.23;;
15297;SDS011;7750;48.796;9.026;2024-03-17T14:24:24;6.10;;;3.87;;
15297;SDS011;7750;48.796;9.026;2024-03-17T14:29:26;5.00;;;3.67;;
15297;SDS011;7750;48.796;9.026;2024-03-17T14:34:27;4.70;;;3.37;;
15297;SDS011;7750;48.796;9.026;2024-03-17T14:39:33;5.43;;;3.60;;
15297;SDS011;7750;48.796;9.026;2024-03-17T14:44:34;5.50;;;3.53;;
15297;SDS011;7750;48.796;9.026;2024-03-17T14:49:39;7.00;;;4.50;;
15297;SDS011;7750;48.796;9.026;2024-03-17T14:54:40;4.97;;;3.63;;
15297;SDS011;7750;48.796;9.026;2024-03-17T14:59:41;5.30;;;3.97;;
15297;SDS011;7750;48.796;9.026;2024-03-17T15:04:41;6.47;;;4.20;;
15297;SDS011;7750;48.796;9.026;2024-03-17T15:09:42;7.30;;;3.67;;
15297;SDS011;7750;48.796;9.026;2024-03-17T15:14:42;4.63;;;2.97;;
15297;SDS011;7750;48.796;9.026;2024-03-17T15:19:46;6.50;;;3.50;;
15297;SDS011;7750;48.796;9.026;2024-03-17T15:24:48;6.43;;;3.40;;
15297;SDS011;7750;48.796;9.026;2024-03-17T15:29:48;5.03;;;3.40;;
15297;SDS011;7750;48.796;9.026;2024-03-17T15:34:49;5.37;;;4.33;;
15297;SDS011;7750;48.796;9.026;2024-03-17T15:39:50;5.47;;;3.23;;
15297;SDS011;7750;48.796;9.026;2024-03-17T15:44:50;5.10;;;3.27;;
15297;SDS011;7750;48.796;9.026;2024-03-17T15:49:51;6.73;;;3.50;;
15297;SDS011;7750;48.796;9.026;2024-03-17T15:54:51;6.07;;;4.03;;
15297;SDS011;7750;48.796;9.026;2024-03-17T15:59:52;5.17;;;3.00;;
15297;SDS011;7750;48.796;9.026;2024-03-17T16:04:55;3.73;;;2.87;;
15297;SDS011;7750;48.796;9.026;2024-03-17T16:09:55;5.30;;;3.43;;
15297;SDS011;7750;48.796;9.026;2024-03-17T16:14:56;7.77;;;3.30;;
15297;SDS011;7750;48.796;9.026;2024-03-17T16:20:00;4.83;;;3.20;;
15297;SDS011;7750;48.796;9.026;2024-03-17T16:25:08;5.60;;;3.50;;
15297;SDS011;7750;48.796;9.026;2024-03-17T16:30:10;6.23;;;3.00;;
15297;SDS011;7750;48.796;9.026;2024-03-17T16:35:12;5.10;;;3.37;;
15297;SDS011;7750;48.796;9.026;2024-03-17T16:40:13;6.60;;;4.90;;
15297;SDS011;7750;48.796;9.026;2024-03-17T16:45:16;7.60;;;4.23;;
15297;SDS011;7750;48.796;9.026;2024-03-17T16:50:19;6.40;;;4.40;;
15297;SDS011;7750;48.796;9.026;2024-03-17T16:55:21;10.03;;;4.30;;
15297;SDS011;7750;48.796;9.026;2024-03-17T17:00:24;6.20;;;4.10;;
15297;SDS011;7750;48.796;9.026;2024-03-17T17:05:26;4.43;;;3.87;;
15297;SDS011;7750;48.796;9.026;2024-03-17T17:10:26;6.67;;;4.00;;
15297;SDS011;7750;48.796;9.026;2024-03-17T17:15:27;7.70;;;3.63;;
15297;SDS011;7750;48.796;9.026;2024-03-17T17:20:28;6.60;;;3.30;;
15297;SDS011;7750;48.796;9.026;2024-03-17T17:25:33;4.67;;;3.50;;
15297;SDS011;7750;48.796;9.026;2024-03-17T17:30:35;9.93;;;3.27;;
15297;SDS011;7750;48.796;9.026;2024-03-17T17:35:35;4.27;;;3.23;;
15297;SDS011;7750;48.796;9.026;2024-03-17T17:40:39;4.30;;;3.50;;
15297;SDS011;7750;48.796;9.026;2024-03-17T17:45:41;4.20;;;3.13;;
15297;SDS011;7750;48.796;9.026;2024-03-17T17:50:42;6.90;;;3.13;;
15297;SDS011;7750;48.796;9.026;2024-03-17T17:55:42;5.90;;;3.53;;
15297;SDS011;7750;48.796;9.026;2024-03-17T18:00:43;5.23;;;3.70;;
15297;SDS011;7750;48.796;9.026;2024-03-17T18:05:44;6.80;;;4.20;;
15297;SDS011;7750;48.796;9.026;2024-03-17T18:10:44;4.87;;;3.83;;
15297;SDS011;7750;48.796;9.026;2024-03-17T18:15:45;8.57;;;4.57;;
15297;SDS011;7750;48.796;9.026;2024-03-17T20:55:27;7.30;;;5.30;;
15297;SDS011;7750;48.796;9.026;2024-03-17T21:00:37;8.53;;;4.97;;
15297;SDS011;7750;48.796;9.026;2024-03-17T21:05:44;7.03;;;5.73;;
15297;SDS011;7750;48.796;9.026;2024-03-17T21:10:55;7.70;;;5.40;;
